sensor_id;sensor_type;location;lat;lon;timestamp;P1;durP1;ratioP1;P2;durP2;ratioP2
76355;SDS011;65184;50.952;4.366;2022-11-25T00:00:26;2.88;;;1.40;;
76355;SDS011;65184;50.952;4.366;2022-11-25T00:02:51;3.10;;;1.60;;
76355;SDS011;65184;50.952;4.366;2022-11-25T00:05:17;4.03;;;1.58;;
76355;SDS011;65184;50.952;4.366;2022-11-25T00:07:42;4.03;;;1.70;;
76355;SDS011;65184;50.952;4.366;2022-11-25T00:10:08;3.88;;;1.50;;
76355;SDS011;65184;50.952;4.366;2022-11-25T00:12:33;3.28;;;1.33;;
76355;SDS011;65184;50.952;4.366;2022-11-25T00:14:59;3.83;;;1.30;;
76355;SDS011;65184;50.952;4.366;2022-11-25T00:17:24;3.13;;;1.40;;
76355;SDS011;65184;50.952;4.366;2022-11-25T00:19:49;3.00;;;1.42;;
76355;SDS011;65184;50.952;4.366;2022-11-25T00:22:15;4.68;;;1.77;;
76355;SDS011;65184;50.952;4.366;2022-11-25T00:24:41;4.55;;;1.60;;
76355;SDS011;65184;50.952;4.366;2022-11-25T00:27:07;2.95;;;1.35;;
76355;SDS011;65184;50.952;4.366;2022-11-25T00:29:32;3.58;;;1.83;;
76355;SDS011;65184;50.952;4.366;2022-11-25T00:31:57;2.00;;;1.13;;
76355;SDS011;65184;50.952;4.366;2022-11-25T00:34:23;2.20;;;1.05;;
76355;SDS011;65184;50.952;4.366;2022-11-25T00:36:48;3.50;;;1.48;;
76355;SDS011;65184;50.952;4.366;2022-11-25T00:39:15;2.65;;;1.30;;
76355;SDS011;65184;50.952;4.366;2022-11-25T00:41:42;3.45;;;1.45;;
76355;SDS011;65184;50.952;4.366;2022-11-25T00:44:27;2.50;;;1.42;;
76355;SDS011;65184;50.952;4.366;2022-11-25T00:49:33;2.13;;;1.30;;
76355;SDS011;65184;50.952;4.366;2022-11-25T00:51:59;2.97;;;1.40;;
76355;SDS011;65184;50.952;4.366;2022-11-25T00:54:24;3.00;;;1.30;;
76355;SDS011;65184;50.952;4.366;2022-11-25T00:56:50;2.28;;;1.30;;
76355;SDS011;65184;50.952;4.366;2022-11-25T00:59:15;4.43;;;1.48;;
76355;SDS011;65184;50.952;4.366;2022-11-25T01:01:41;2.90;;;1.48;;
76355;SDS011;65184;50.952;4.366;2022-11-25T01:04:06;2.40;;;1.45;;
76355;SDS011;65184;50.952;4.366;2022-11-25T01:06:32;4.07;;;1.25;;
76355;SDS011;65184;50.952;4.366;2022-11-25T01:08:58;2.00;;;1.33;;
76355;SDS011;65184;50.952;4.366;2022-11-25T01:11:24;3.25;;;1.20;;
76355;SDS011;65184;50.952;4.366;2022-11-25T01:13:49;3.40;;;1.27;;
76355;SDS011;65184;50.952;4.366;2022-11-25T01:16:16;3.10;;;1.13;;
76355;SDS011;65184;50.952;4.366;2022-11-25T01:18:43;2.30;;;1.30;;
76355;SDS011;65184;50.952;4.366;2022-11-25T01:21:10;3.83;;;1.60;;
76355;SDS011;65184;50.952;4.366;2022-11-25T01:23:39;4.25;;;1.77;;
76355;SDS011;65184;50.952;4.366;2022-11-25T01:26:06;2.53;;;1.45;;
76355;SDS011;65184;50.952;4.366;2022-11-25T01:28:33;3.30;;;1.35;;
76355;SDS011;65184;50.952;4.366;2022-11-25T01:30:59;2.65;;;1.20;;
76355;SDS011;65184;50.952;4.366;2022-11-25T01:33:30;3.47;;;1.48;;
76355;SDS011;65184;50.952;4.366;2022-11-25T01:38:31;2.47;;;1.10;;
76355;SDS011;65184;50.952;4.366;2022-11-25T01:40:56;2.28;;;1.38;;
76355;SDS011;65184;50.952;4.366;2022-11-25T01:43:22;2.25;;;1.38;;
76355;SDS011;65184;50.952;4.366;2022-11-25T01:45:48;3.15;;;1.40;;
76355;SDS011;65184;50.952;4.366;2022-11-25T01:48:24;2.38;;;1.33;;
76355;SDS011;65184;50.952;4.366;2022-11-25T01:50:53;4.05;;;1.10;;
76355;SDS011;65184;50.952;4.366;2022-11-25T01:53:19;3.10;;;1.23;;
76355;SDS011;65184;50.952;4.366;2022-11-25T01:55:50;2.40;;;1.20;;
76355;SDS011;65184;50.952;4.366;2022-11-25T01:58:24;3.40;;;1.33;;
76355;SDS011;65184;50.952;4.366;2022-11-25T02:00:52;3.15;;;1.27;;
76355;SDS011;65184;50.952;4.366;2022-11-25T02:03:21;2.30;;;1.30;;
76355;SDS011;65184;50.952;4.366;2022-11-25T02:08:23;2.35;;;1.25;;
76355;SDS011;65184;50.952;4.366;2022-11-25T02:10:51;2.22;;;1.17;;
76355;SDS011;65184;50.952;4.366;2022-11-25T02:13:17;2.45;;;1.20;;
76355;SDS011;65184;50.952;4.366;2022-11-25T02:15:43;3.08;;;1.13;;
76355;SDS011;65184;50.952;4.366;2022-11-25T02:18:08;2.50;;;1.30;;
76355;SDS011;65184;50.952;4.366;2022-11-25T02:20:34;2.70;;;1.08;;
76355;SDS011;65184;50.952;4.366;2022-11-25T02:25:42;2.90;;;1.20;;
76355;SDS011;65184;50.952;4.366;2022-11-25T02:28:10;2.58;;;1.15;;
76355;SDS011;65184;50.952;4.366;2022-11-25T02:30:41;3.13;;;1.25;;
76355;SDS011;65184;50.952;4.366;2022-11-25T02:33:07;2.38;;;1.00;;
76355;SDS011;65184;50.952;4.366;2022-11-25T02:35:37;2.08;;;1.20;;
76355;SDS011;65184;50.952;4.366;2022-11-25T02:38:35;2.17;;;1.30;;
76355;SDS011;65184;50.952;4.366;2022-11-25T02:41:04;2.33;;;1.15;;
76355;SDS011;65184;50.952;4.366;2022-11-25T02:43:34;2.25;;;1.23;;
76355;SDS011;65184;50.952;4.366;2022-11-25T02:46:01;2.72;;;1.17;;
76355;SDS011;65184;50.952;4.366;2022-11-25T02:48:35;2.10;;;1.05;;
76355;SDS011;65184;50.952;4.366;2022-11-25T02:51:01;1.48;;;1.05;;
76355;SDS011;65184;50.952;4.366;2022-11-25T02:53:27;2.13;;;1.05;;
76355;SDS011;65184;50.952;4.366;2022-11-25T02:55:53;1.80;;;1.10;;
76355;SDS011;65184;50.952;4.366;2022-11-25T02:58:18;2.70;;;1.13;;
76355;SDS011;65184;50.952;4.366;2022-11-25T03:00:44;2.22;;;1.13;;
76355;SDS011;65184;50.952;4.366;2022-11-25T03:03:10;3.00;;;1.40;;
76355;SDS011;65184;50.952;4.366;2022-11-25T03:05:35;3.33;;;0.95;;
76355;SDS011;65184;50.952;4.366;2022-11-25T03:08:01;1.60;;;0.93;;
76355;SDS011;65184;50.952;4.366;2022-11-25T03:10:26;2.78;;;1.20;;
76355;SDS011;65184;50.952;4.366;2022-11-25T03:12:52;2.13;;;0.90;;
76355;SDS011;65184;50.952;4.366;2022-11-25T03:15:17;1.25;;;0.80;;
76355;SDS011;65184;50.952;4.366;2022-11-25T03:17:43;2.50;;;1.05;;
76355;SDS011;65184;50.952;4.366;2022-11-25T03:20:08;2.60;;;1.45;;
76355;SDS011;65184;50.952;4.366;2022-11-25T03:22:36;1.65;;;0.93;;
76355;SDS011;65184;50.952;4.366;2022-11-25T03:25:02;2.08;;;1.40;;
76355;SDS011;65184;50.952;4.366;2022-11-25T03:27:27;2.25;;;1.00;;
76355;SDS011;65184;50.952;4.366;2022-11-25T03:29:53;1.40;;;0.90;;
76355;SDS011;65184;50.952;4.366;2022-11-25T03:32:18;1.70;;;0.95;;
76355;SDS011;65184;50.952;4.366;2022-11-25T03:34:44;2.08;;;1.00;;
76355;SDS011;65184;50.952;4.366;2022-11-25T03:37:09;1.52;;;1.10;;
76355;SDS011;65184;50.952;4.366;2022-11-25T03:39:34;1.60;;;0.95;;
76355;SDS011;65184;50.952;4.366;2022-11-25T03:42:00;1.80;;;1.00;;
76355;SDS011;65184;50.952;4.366;2022-11-25T03:44:25;3.38;;;1.10;;
76355;SDS011;65184;50.952;4.366;2022-11-25T03:46:50;2.03;;;0.98;;
76355;SDS011;65184;50.952;4.366;2022-11-25T03:49:16;3.45;;;1.30;;
76355;SDS011;65184;50.952;4.366;2022-11-25T03:51:42;2.30;;;1.13;;
76355;SDS011;65184;50.952;4.366;2022-11-25T03:54:07;1.92;;;1.20;;
76355;SDS011;65184;50.952;4.366;2022-11-25T03:56:33;1.90;;;0.98;;
76355;SDS011;65184;50.952;4.366;2022-11-25T03:58:58;2.28;;;1.10;;
76355;SDS011;65184;50.952;4.366;2022-11-25T04:01:24;2.70;;;1.20;;
76355;SDS011;65184;50.952;4.366;2022-11-25T04:03:49;1.90;;;1.00;;
76355;SDS011;65184;50.952;4.366;2022-11-25T04:06:15;2.10;;;1.00;;
76355;SDS011;65184;50.952;4.366;2022-11-25T04:08:44;2.97;;;1.20;;
76355;SDS011;65184;50.952;4.366;2022-11-25T04:11:09;2.90;;;1.15;;
76355;SDS011;65184;50.952;4.366;2022-11-25T04:13:35;2.20;;;1.15;;
76355;SDS011;65184;50.952;4.366;2022-11-25T04:16:00;1.90;;;1.20;;
76355;SDS011;65184;50.952;4.366;2022-11-25T04:18:26;2.50;;;1.15;;
76355;SDS011;65184;50.952;4.366;2022-11-25T04:20:51;1.55;;;1.13;;
76355;SDS011;65184;50.952;4.366;2022-11-25T04:23:16;1.70;;;0.93;;
76355;SDS011;65184;50.952;4.366;2022-11-25T04:25:42;1.83;;;1.13;;
76355;SDS011;65184;50.952;4.366;2022-11-25T04:28:07;2.58;;;1.00;;
76355;SDS011;65184;50.952;4.366;2022-11-25T04:30:33;1.85;;;1.05;;
76355;SDS011;65184;50.952;4.366;2022-11-25T04:32:59;1.92;;;0.82;;
76355;SDS011;65184;50.952;4.366;2022-11-25T04:35:25;2.05;;;0.88;;
76355;SDS011;65184;50.952;4.366;2022-11-25T04:37:50;1.38;;;0.90;;
76355;SDS011;65184;50.952;4.366;2022-11-25T04:40:16;2.17;;;0.98;;
76355;SDS011;65184;50.952;4.366;2022-11-25T04:42:41;1.27;;;0.82;;
76355;SDS011;65184;50.952;4.366;2022-11-25T04:45:08;2.55;;;0.93;;
76355;SDS011;65184;50.952;4.366;2022-11-25T04:47:35;1.40;;;0.80;;
76355;SDS011;65184;50.952;4.366;2022-11-25T04:50:01;1.98;;;0.98;;
76355;SDS011;65184;50.952;4.366;2022-11-25T04:52:28;1.52;;;0.73;;
76355;SDS011;65184;50.952;4.366;2022-11-25T04:54:53;1.45;;;0.80;;
76355;SDS011;65184;50.952;4.366;2022-11-25T04:57:19;1.40;;;0.98;;
76355;SDS011;65184;50.952;4.366;2022-11-25T04:59:45;2.22;;;1.40;;
76355;SDS011;65184;50.952;4.366;2022-11-25T05:02:20;1.83;;;1.05;;
76355;SDS011;65184;50.952;4.366;2022-11-25T05:04:48;2.72;;;1.00;;
76355;SDS011;65184;50.952;4.366;2022-11-25T05:07:15;1.38;;;1.10;;
76355;SDS011;65184;50.952;4.366;2022-11-25T05:09:41;2.53;;;1.02;;
76355;SDS011;65184;50.952;4.366;2022-11-25T05:12:07;2.45;;;1.10;;
76355;SDS011;65184;50.952;4.366;2022-11-25T05:14:35;1.08;;;0.70;;
76355;SDS011;65184;50.952;4.366;2022-11-25T05:17:01;0.82;;;0.50;;
76355;SDS011;65184;50.952;4.366;2022-11-25T05:19:28;2.05;;;1.10;;
76355;SDS011;65184;50.952;4.366;2022-11-25T05:21:53;1.65;;;1.00;;
76355;SDS011;65184;50.952;4.366;2022-11-25T05:24:18;1.73;;;1.00;;
76355;SDS011;65184;50.952;4.366;2022-11-25T05:26:44;3.67;;;1.35;;
76355;SDS011;65184;50.952;4.366;2022-11-25T05:29:09;0.95;;;0.73;;
76355;SDS011;65184;50.952;4.366;2022-11-25T05:31:35;2.60;;;1.10;;
76355;SDS011;65184;50.952;4.366;2022-11-25T05:34:00;2.25;;;1.10;;
76355;SDS011;65184;50.952;4.366;2022-11-25T05:36:26;1.80;;;1.20;;
76355;SDS011;65184;50.952;4.366;2022-11-25T05:38:52;1.80;;;1.00;;
76355;SDS011;65184;50.952;4.366;2022-11-25T05:41:17;1.50;;;0.77;;
76355;SDS011;65184;50.952;4.366;2022-11-25T05:43:42;1.75;;;1.10;;
76355;SDS011;65184;50.952;4.366;2022-11-25T05:46:08;2.08;;;1.13;;
76355;SDS011;65184;50.952;4.366;2022-11-25T05:48:34;1.63;;;1.00;;
76355;SDS011;65184;50.952;4.366;2022-11-25T05:51:00;2.83;;;0.98;;
76355;SDS011;65184;50.952;4.366;2022-11-25T05:53:26;2.22;;;1.00;;
76355;SDS011;65184;50.952;4.366;2022-11-25T05:55:53;2.45;;;1.10;;
76355;SDS011;65184;50.952;4.366;2022-11-25T05:58:20;2.22;;;1.15;;
76355;SDS011;65184;50.952;4.366;2022-11-25T06:00:46;2.35;;;1.08;;
76355;SDS011;65184;50.952;4.366;2022-11-25T06:03:11;1.33;;;1.00;;
76355;SDS011;65184;50.952;4.366;2022-11-25T06:05:36;5.45;;;1.60;;
76355;SDS011;65184;50.952;4.366;2022-11-25T06:08:02;3.53;;;1.05;;
76355;SDS011;65184;50.952;4.366;2022-11-25T06:10:27;3.30;;;1.30;;
76355;SDS011;65184;50.952;4.366;2022-11-25T06:12:53;2.20;;;0.90;;
76355;SDS011;65184;50.952;4.366;2022-11-25T06:15:18;1.77;;;1.00;;
76355;SDS011;65184;50.952;4.366;2022-11-25T06:17:44;1.77;;;0.95;;
76355;SDS011;65184;50.952;4.366;2022-11-25T06:20:09;1.55;;;0.95;;
76355;SDS011;65184;50.952;4.366;2022-11-25T06:22:35;2.40;;;1.25;;
76355;SDS011;65184;50.952;4.366;2022-11-25T06:25:01;2.30;;;1.10;;
76355;SDS011;65184;50.952;4.366;2022-11-25T06:27:27;1.52;;;0.82;;
76355;SDS011;65184;50.952;4.366;2022-11-25T06:29:52;1.73;;;1.00;;
76355;SDS011;65184;50.952;4.366;2022-11-25T06:32:17;3.67;;;1.15;;
76355;SDS011;65184;50.952;4.366;2022-11-25T06:34:43;7.90;;;1.75;;
76355;SDS011;65184;50.952;4.366;2022-11-25T06:37:08;6.68;;;1.70;;
76355;SDS011;65184;50.952;4.366;2022-11-25T06:39:34;7.65;;;2.08;;
76355;SDS011;65184;50.952;4.366;2022-11-25T06:41:59;7.18;;;2.53;;
76355;SDS011;65184;50.952;4.366;2022-11-25T06:44:24;9.63;;;2.03;;
76355;SDS011;65184;50.952;4.366;2022-11-25T06:46:50;8.25;;;2.05;;
76355;SDS011;65184;50.952;4.366;2022-11-25T06:49:15;7.88;;;2.33;;
76355;SDS011;65184;50.952;4.366;2022-11-25T06:51:41;7.93;;;2.72;;
76355;SDS011;65184;50.952;4.366;2022-11-25T06:54:06;9.10;;;2.80;;
76355;SDS011;65184;50.952;4.366;2022-11-25T06:56:32;9.05;;;2.50;;
76355;SDS011;65184;50.952;4.366;2022-11-25T06:58:58;10.43;;;2.97;;
76355;SDS011;65184;50.952;4.366;2022-11-25T07:01:24;7.40;;;2.63;;
76355;SDS011;65184;50.952;4.366;2022-11-25T07:03:52;13.02;;;2.80;;
76355;SDS011;65184;50.952;4.366;2022-11-25T07:06:28;8.40;;;2.80;;
76355;SDS011;65184;50.952;4.366;2022-11-25T07:08:54;8.82;;;3.25;;
76355;SDS011;65184;50.952;4.366;2022-11-25T07:11:27;9.77;;;3.75;;
76355;SDS011;65184;50.952;4.366;2022-11-25T07:13:54;10.65;;;3.30;;
76355;SDS011;65184;50.952;4.366;2022-11-25T07:16:21;11.07;;;3.72;;
76355;SDS011;65184;50.952;4.366;2022-11-25T07:18:47;15.48;;;4.25;;
76355;SDS011;65184;50.952;4.366;2022-11-25T07:21:14;14.98;;;4.65;;
76355;SDS011;65184;50.952;4.366;2022-11-25T07:23:42;16.85;;;4.15;;
76355;SDS011;65184;50.952;4.366;2022-11-25T07:26:12;12.48;;;3.88;;
76355;SDS011;65184;50.952;4.366;2022-11-25T07:28:39;16.02;;;3.97;;
76355;SDS011;65184;50.952;4.366;2022-11-25T07:33:33;15.35;;;4.68;;
76355;SDS011;65184;50.952;4.366;2022-11-25T07:36:05;17.05;;;5.03;;
76355;SDS011;65184;50.952;4.366;2022-11-25T07:38:32;18.08;;;4.47;;
76355;SDS011;65184;50.952;4.366;2022-11-25T07:43:34;13.15;;;4.70;;
76355;SDS011;65184;50.952;4.366;2022-11-25T07:46:09;15.38;;;4.82;;
76355;SDS011;65184;50.952;4.366;2022-11-25T07:48:39;15.75;;;4.22;;
76355;SDS011;65184;50.952;4.366;2022-11-25T07:51:12;14.73;;;4.07;;
76355;SDS011;65184;50.952;4.366;2022-11-25T07:53:44;17.38;;;4.25;;
76355;SDS011;65184;50.952;4.366;2022-11-25T07:56:10;7.38;;;3.78;;
76355;SDS011;65184;50.952;4.366;2022-11-25T07:58:36;10.77;;;3.60;;
76355;SDS011;65184;50.952;4.366;2022-11-25T08:01:05;10.88;;;3.40;;
76355;SDS011;65184;50.952;4.366;2022-11-25T08:03:33;13.35;;;3.70;;
76355;SDS011;65184;50.952;4.366;2022-11-25T08:06:00;11.90;;;3.90;;
76355;SDS011;65184;50.952;4.366;2022-11-25T08:08:26;13.40;;;3.55;;
76355;SDS011;65184;50.952;4.366;2022-11-25T08:10:52;11.43;;;3.50;;
76355;SDS011;65184;50.952;4.366;2022-11-25T08:13:17;12.57;;;3.65;;
76355;SDS011;65184;50.952;4.366;2022-11-25T08:15:42;12.95;;;3.85;;
76355;SDS011;65184;50.952;4.366;2022-11-25T08:18:08;10.25;;;3.53;;
76355;SDS011;65184;50.952;4.366;2022-11-25T08:20:33;8.73;;;3.30;;
76355;SDS011;65184;50.952;4.366;2022-11-25T08:22:58;10.00;;;3.60;;
76355;SDS011;65184;50.952;4.366;2022-11-25T08:25:24;9.73;;;3.97;;
76355;SDS011;65184;50.952;4.366;2022-11-25T08:27:50;9.88;;;3.55;;
76355;SDS011;65184;50.952;4.366;2022-11-25T08:30:16;9.05;;;3.63;;
76355;SDS011;65184;50.952;4.366;2022-11-25T08:32:41;8.88;;;3.28;;
76355;SDS011;65184;50.952;4.366;2022-11-25T08:35:07;11.10;;;3.65;;
76355;SDS011;65184;50.952;4.366;2022-11-25T08:37:32;9.60;;;3.22;;
76355;SDS011;65184;50.952;4.366;2022-11-25T08:39:58;9.50;;;3.65;;
76355;SDS011;65184;50.952;4.366;2022-11-25T08:42:23;9.73;;;3.40;;
76355;SDS011;65184;50.952;4.366;2022-11-25T08:44:52;12.23;;;3.75;;
76355;SDS011;65184;50.952;4.366;2022-11-25T08:47:19;9.63;;;3.08;;
76355;SDS011;65184;50.952;4.366;2022-11-25T08:49:44;8.68;;;3.35;;
76355;SDS011;65184;50.952;4.366;2022-11-25T08:52:10;13.02;;;3.40;;
76355;SDS011;65184;50.952;4.366;2022-11-25T08:54:35;9.98;;;3.67;;
76355;SDS011;65184;50.952;4.366;2022-11-25T08:57:01;9.52;;;3.40;;
76355;SDS011;65184;50.952;4.366;2022-11-25T08:59:26;12.30;;;3.08;;
76355;SDS011;65184;50.952;4.366;2022-11-25T09:01:51;7.82;;;2.80;;
76355;SDS011;65184;50.952;4.366;2022-11-25T09:04:17;8.13;;;3.05;;
76355;SDS011;65184;50.952;4.366;2022-11-25T09:06:42;8.48;;;2.97;;
76355;SDS011;65184;50.952;4.366;2022-11-25T09:09:08;10.45;;;3.13;;
76355;SDS011;65184;50.952;4.366;2022-11-25T09:11:33;9.65;;;3.47;;
76355;SDS011;65184;50.952;4.366;2022-11-25T09:13:59;8.40;;;3.03;;
76355;SDS011;65184;50.952;4.366;2022-11-25T09:16:24;7.40;;;3.00;;
76355;SDS011;65184;50.952;4.366;2022-11-25T09:18:49;5.47;;;2.40;;
76355;SDS011;65184;50.952;4.366;2022-11-25T09:21:15;11.35;;;3.28;;
76355;SDS011;65184;50.952;4.366;2022-11-25T09:23:42;9.10;;;2.80;;
76355;SDS011;65184;50.952;4.366;2022-11-25T09:26:09;7.97;;;2.83;;
76355;SDS011;65184;50.952;4.366;2022-11-25T09:28:43;7.72;;;3.58;;
76355;SDS011;65184;50.952;4.366;2022-11-25T09:31:08;6.88;;;2.63;;
76355;SDS011;65184;50.952;4.366;2022-11-25T09:33:34;7.53;;;2.47;;
76355;SDS011;65184;50.952;4.366;2022-11-25T09:36:00;6.22;;;2.80;;
76355;SDS011;65184;50.952;4.366;2022-11-25T09:38:26;6.68;;;2.80;;
76355;SDS011;65184;50.952;4.366;2022-11-25T09:41:01;7.45;;;2.95;;
76355;SDS011;65184;50.952;4.366;2022-11-25T09:54:36;9.30;;;3.35;;
76355;SDS011;65184;50.952;4.366;2022-11-25T09:59:46;7.90;;;3.00;;
76355;SDS011;65184;50.952;4.366;2022-11-25T10:02:24;7.40;;;2.95;;
76355;SDS011;65184;50.952;4.366;2022-11-25T10:05:15;7.43;;;2.70;;
76355;SDS011;65184;50.952;4.366;2022-11-25T10:07:59;6.95;;;2.45;;
76355;SDS011;65184;50.952;4.366;2022-11-25T10:10:43;5.43;;;2.33;;
76355;SDS011;65184;50.952;4.366;2022-11-25T10:13:20;6.80;;;2.65;;
76355;SDS011;65184;50.952;4.366;2022-11-25T10:16:05;6.82;;;2.30;;
76355;SDS011;65184;50.952;4.366;2022-11-25T10:18:44;6.82;;;2.53;;
76355;SDS011;65184;50.952;4.366;2022-11-25T10:21:16;4.70;;;2.13;;
76355;SDS011;65184;50.952;4.366;2022-11-25T10:23:42;6.85;;;2.33;;
76355;SDS011;65184;50.952;4.366;2022-11-25T10:26:14;5.78;;;2.55;;
76355;SDS011;65184;50.952;4.366;2022-11-25T10:28:47;5.18;;;2.40;;
76355;SDS011;65184;50.952;4.366;2022-11-25T10:31:20;5.55;;;2.13;;
76355;SDS011;65184;50.952;4.366;2022-11-25T10:33:50;5.68;;;2.10;;
76355;SDS011;65184;50.952;4.366;2022-11-25T10:38:51;5.40;;;2.20;;
76355;SDS011;65184;50.952;4.366;2022-11-25T10:41:32;6.35;;;2.28;;
76355;SDS011;65184;50.952;4.366;2022-11-25T10:44:00;4.45;;;1.92;;
76355;SDS011;65184;50.952;4.366;2022-11-25T10:51:48;5.32;;;2.22;;
76355;SDS011;65184;50.952;4.366;2022-11-25T10:54:15;3.65;;;1.80;;
76355;SDS011;65184;50.952;4.366;2022-11-25T10:59:22;5.28;;;2.20;;
76355;SDS011;65184;50.952;4.366;2022-11-25T11:01:50;6.45;;;2.22;;
76355;SDS011;65184;50.952;4.366;2022-11-25T11:04:16;5.65;;;2.00;;
76355;SDS011;65184;50.952;4.366;2022-11-25T11:06:47;4.25;;;2.00;;
76355;SDS011;65184;50.952;4.366;2022-11-25T11:11:57;6.10;;;2.20;;
76355;SDS011;65184;50.952;4.366;2022-11-25T11:14:36;3.17;;;1.60;;
76355;SDS011;65184;50.952;4.366;2022-11-25T11:17:02;4.70;;;2.17;;
76355;SDS011;65184;50.952;4.366;2022-11-25T11:19:28;4.03;;;1.90;;
76355;SDS011;65184;50.952;4.366;2022-11-25T11:21:57;5.60;;;2.17;;
76355;SDS011;65184;50.952;4.366;2022-11-25T11:24:39;3.55;;;1.65;;
76355;SDS011;65184;50.952;4.366;2022-11-25T11:27:13;6.07;;;2.15;;
76355;SDS011;65184;50.952;4.366;2022-11-25T11:29:43;4.53;;;2.20;;
76355;SDS011;65184;50.952;4.366;2022-11-25T11:32:18;5.68;;;2.00;;
76355;SDS011;65184;50.952;4.366;2022-11-25T11:35:02;5.28;;;2.08;;
76355;SDS011;65184;50.952;4.366;2022-11-25T11:45:36;5.30;;;2.00;;
76355;SDS011;65184;50.952;4.366;2022-11-25T11:48:37;4.65;;;1.73;;
76355;SDS011;65184;50.952;4.366;2022-11-25T12:05:05;4.43;;;1.90;;
76355;SDS011;65184;50.952;4.366;2022-11-25T12:15:42;3.55;;;1.60;;
76355;SDS011;65184;50.952;4.366;2022-11-25T12:21:04;3.40;;;1.55;;
76355;SDS011;65184;50.952;4.366;2022-11-25T12:23:41;3.15;;;1.60;;
76355;SDS011;65184;50.952;4.366;2022-11-25T12:26:30;4.53;;;1.80;;
76355;SDS011;65184;50.952;4.366;2022-11-25T12:29:01;3.65;;;1.73;;
76355;SDS011;65184;50.952;4.366;2022-11-25T12:31:45;5.72;;;2.17;;
76355;SDS011;65184;50.952;4.366;2022-11-25T12:34:18;3.97;;;1.63;;
76355;SDS011;65184;50.952;4.366;2022-11-25T12:37:03;5.18;;;1.70;;
76355;SDS011;65184;50.952;4.366;2022-11-25T12:42:05;3.90;;;1.50;;
76355;SDS011;65184;50.952;4.366;2022-11-25T12:47:08;4.00;;;1.92;;
76355;SDS011;65184;50.952;4.366;2022-11-25T12:49:38;3.95;;;1.75;;
76355;SDS011;65184;50.952;4.366;2022-11-25T13:11:00;2.33;;;1.33;;
76355;SDS011;65184;50.952;4.366;2022-11-25T13:13:35;2.97;;;1.85;;
76355;SDS011;65184;50.952;4.366;2022-11-25T13:16:04;3.85;;;1.80;;
76355;SDS011;65184;50.952;4.366;2022-11-25T13:18:30;3.35;;;1.60;;
76355;SDS011;65184;50.952;4.366;2022-11-25T13:21:04;2.67;;;1.52;;
76355;SDS011;65184;50.952;4.366;2022-11-25T13:23:52;3.25;;;2.00;;
76355;SDS011;65184;50.952;4.366;2022-11-25T13:29:04;3.65;;;1.80;;
76355;SDS011;65184;50.952;4.366;2022-11-25T13:31:32;4.20;;;2.03;;
76355;SDS011;65184;50.952;4.366;2022-11-25T13:36:54;2.53;;;1.42;;
76355;SDS011;65184;50.952;4.366;2022-11-25T13:44:24;3.45;;;1.50;;
76355;SDS011;65184;50.952;4.366;2022-11-25T13:46:53;3.00;;;1.70;;
76355;SDS011;65184;50.952;4.366;2022-11-25T13:49:21;3.80;;;1.73;;
76355;SDS011;65184;50.952;4.366;2022-11-25T13:51:52;3.28;;;1.38;;
76355;SDS011;65184;50.952;4.366;2022-11-25T13:54:20;2.95;;;1.60;;
76355;SDS011;65184;50.952;4.366;2022-11-25T13:59:35;4.10;;;1.75;;
76355;SDS011;65184;50.952;4.366;2022-11-25T14:02:48;3.78;;;1.60;;
76355;SDS011;65184;50.952;4.366;2022-11-25T14:05:14;4.38;;;1.75;;
76355;SDS011;65184;50.952;4.366;2022-11-25T14:21:56;2.75;;;1.60;;
76355;SDS011;65184;50.952;4.366;2022-11-25T14:26:56;3.05;;;1.50;;
76355;SDS011;65184;50.952;4.366;2022-11-25T14:29:25;2.58;;;1.45;;
76355;SDS011;65184;50.952;4.366;2022-11-25T14:32:03;3.20;;;1.60;;
76355;SDS011;65184;50.952;4.366;2022-11-25T14:34:34;2.78;;;1.50;;
76355;SDS011;65184;50.952;4.366;2022-11-25T14:37:13;3.03;;;1.58;;
76355;SDS011;65184;50.952;4.366;2022-11-25T14:40:03;2.78;;;1.50;;
76355;SDS011;65184;50.952;4.366;2022-11-25T14:42:36;2.92;;;1.60;;
76355;SDS011;65184;50.952;4.366;2022-11-25T14:45:08;2.80;;;1.67;;
76355;SDS011;65184;50.952;4.366;2022-11-25T14:47:47;2.42;;;1.38;;
76355;SDS011;65184;50.952;4.366;2022-11-25T14:50:13;2.45;;;1.30;;
76355;SDS011;65184;50.952;4.366;2022-11-25T14:52:39;2.25;;;1.30;;
76355;SDS011;65184;50.952;4.366;2022-11-25T14:55:08;3.00;;;1.50;;
76355;SDS011;65184;50.952;4.366;2022-11-25T14:57:38;3.90;;;1.67;;
76355;SDS011;65184;50.952;4.366;2022-11-25T15:00:07;3.47;;;1.60;;
76355;SDS011;65184;50.952;4.366;2022-11-25T15:02:39;3.08;;;1.50;;
76355;SDS011;65184;50.952;4.366;2022-11-25T15:07:32;2.60;;;1.60;;
76355;SDS011;65184;50.952;4.366;2022-11-25T15:09:57;2.92;;;1.75;;
76355;SDS011;65184;50.952;4.366;2022-11-25T15:12:23;2.50;;;1.50;;
76355;SDS011;65184;50.952;4.366;2022-11-25T15:14:54;2.92;;;1.75;;
76355;SDS011;65184;50.952;4.366;2022-11-25T15:17:30;3.42;;;1.40;;
76355;SDS011;65184;50.952;4.366;2022-11-25T15:19:57;2.80;;;1.50;;
76355;SDS011;65184;50.952;4.366;2022-11-25T15:22:24;2.88;;;1.40;;
76355;SDS011;65184;50.952;4.366;2022-11-25T15:24:50;2.20;;;1.30;;
76355;SDS011;65184;50.952;4.366;2022-11-25T15:27:18;3.22;;;1.58;;
76355;SDS011;65184;50.952;4.366;2022-11-25T15:29:51;3.65;;;1.55;;
76355;SDS011;65184;50.952;4.366;2022-11-25T15:32:19;2.97;;;1.40;;
76355;SDS011;65184;50.952;4.366;2022-11-25T15:34:49;2.70;;;1.52;;
76355;SDS011;65184;50.952;4.366;2022-11-25T15:37:15;3.13;;;1.70;;
76355;SDS011;65184;50.952;4.366;2022-11-25T15:39:41;2.95;;;1.60;;
76355;SDS011;65184;50.952;4.366;2022-11-25T15:42:17;2.72;;;1.63;;
76355;SDS011;65184;50.952;4.366;2022-11-25T15:47:23;2.72;;;1.45;;
76355;SDS011;65184;50.952;4.366;2022-11-25T15:49:54;3.40;;;1.80;;
76355;SDS011;65184;50.952;4.366;2022-11-25T15:52:37;3.10;;;1.80;;
76355;SDS011;65184;50.952;4.366;2022-11-25T15:55:06;2.92;;;1.70;;
76355;SDS011;65184;50.952;4.366;2022-11-25T15:57:40;5.03;;;2.00;;
76355;SDS011;65184;50.952;4.366;2022-11-25T16:00:12;3.63;;;1.60;;
76355;SDS011;65184;50.952;4.366;2022-11-25T16:07:40;3.40;;;2.22;;
76355;SDS011;65184;50.952;4.366;2022-11-25T16:18:21;5.75;;;3.30;;
76355;SDS011;65184;50.952;4.366;2022-11-25T16:20:54;5.72;;;2.67;;
76355;SDS011;65184;50.952;4.366;2022-11-25T16:23:21;3.53;;;2.40;;
76355;SDS011;65184;50.952;4.366;2022-11-25T16:25:50;4.25;;;2.30;;
76355;SDS011;65184;50.952;4.366;2022-11-25T16:30:50;3.17;;;2.08;;
76355;SDS011;65184;50.952;4.366;2022-11-25T16:33:16;5.55;;;2.03;;
76355;SDS011;65184;50.952;4.366;2022-11-25T16:35:42;3.30;;;1.95;;
76355;SDS011;65184;50.952;4.366;2022-11-25T16:38:09;4.18;;;2.15;;
76355;SDS011;65184;50.952;4.366;2022-11-25T16:40:35;3.65;;;2.03;;
76355;SDS011;65184;50.952;4.366;2022-11-25T16:43:02;5.53;;;1.98;;
76355;SDS011;65184;50.952;4.366;2022-11-25T16:45:28;3.00;;;2.10;;
76355;SDS011;65184;50.952;4.366;2022-11-25T16:47:53;4.55;;;2.40;;
76355;SDS011;65184;50.952;4.366;2022-11-25T16:50:19;3.88;;;1.98;;
76355;SDS011;65184;50.952;4.366;2022-11-25T16:52:45;3.80;;;2.20;;
76355;SDS011;65184;50.952;4.366;2022-11-25T16:55:10;3.65;;;2.30;;
76355;SDS011;65184;50.952;4.366;2022-11-25T16:57:36;4.40;;;2.28;;
76355;SDS011;65184;50.952;4.366;2022-11-25T17:00:03;4.03;;;2.30;;
76355;SDS011;65184;50.952;4.366;2022-11-25T17:02:33;4.13;;;2.25;;
76355;SDS011;65184;50.952;4.366;2022-11-25T17:05:06;4.05;;;2.20;;
76355;SDS011;65184;50.952;4.366;2022-11-25T17:07:40;3.70;;;2.42;;
76355;SDS011;65184;50.952;4.366;2022-11-25T17:10:06;4.43;;;2.33;;
76355;SDS011;65184;50.952;4.366;2022-11-25T17:12:32;5.40;;;2.53;;
76355;SDS011;65184;50.952;4.366;2022-11-25T17:14:59;5.40;;;2.35;;
76355;SDS011;65184;50.952;4.366;2022-11-25T17:17:26;3.58;;;2.25;;
76355;SDS011;65184;50.952;4.366;2022-11-25T17:19:52;3.20;;;2.10;;
76355;SDS011;65184;50.952;4.366;2022-11-25T17:22:19;3.28;;;2.00;;